Station: Delamere  

  Atmospheric Gas Attenuation - ITU Rec 676-11   ----------------- dB/100km -----------------
Date Time Temp RH % AH g/m3 Dew Point Wind Direction Speed kph Gust kph Barometer mB Rainfall Since 9am 24GHz 47GHz 76GHz 122GHz 134GHz 241GHz
03/05 12:20 31.1 49 15.77 19.4 15 17 1012.2 0 33.6 31.8 57.8 152.7 163.3 567.5
03/05 12:10 31.8 50 16.71 20.1 13 17 1012.3 0 35.5 33.1 61.0 161.4 174.1 605.3
03/05 12:00 31.3 52 16.92 20.3 13 20 1012.5 0 36.0 33.6 62.3 164.7 178.1 619.0
03/05 11:50 31.8 50 16.71 20.1 13 17 1012.6 0 35.5 33.1 61.1 161.4 174.2 605.4
03/05 11:40 31.5 49 16.11 19.8 13 17 1012.7 0 34.3 32.2 58.9 155.6 167.0 580.3
03/05 11:30 31.4 53 17.33 20.7 13 22 1012.8 0 36.8 34.3 63.9 169.0 183.4 637.6
03/05 11:20 30.4 55 17.05 20.6 9 11 1013 0 36.3 34.2 63.6 168.1 182.0 632.6
03/05 11:10 30.2 55 16.86 20.2 7 9 1013.2 0 35.9 34.0 63.0 166.4 179.9 625.3
03/05 11:00 30.2 58 17.78 21 11 19 1013.2 0 37.9 35.5 66.8 176.7 192.6 669.3
03/05 10:50 30.7 58 18.27 21.5 11 13 1013.2 0 38.8 36.2 68.5 181.1 198.1 688.7
03/05 10:40 30.2 60 18.4 21.6 6 6 1013.3 0 39.2 36.6 69.5 183.8 201.2 699.6
03/05 10:30 30 61 18.5 21.7 13 20 1013.3 0 39.4 36.9 70.1 185.4 203.2 706.3
03/05 10:20 29.5 61 18.01 21.4 13 15 1013.2 0 38.4 36.2 68.4 181.0 197.6 686.6
03/05 10:10 28.8 66 18.75 21.8 11 13 1013.3 0 40.0 37.8 72.3 191.3 210.0 730.0
03/05 10:00 28.6 66 18.55 21.6 13 19 1013.2 0 39.6 37.6 71.6 189.4 207.7 721.8
03/05 09:50 28.8 70 19.89 22.8 9 11 1013.1 0 42.4 39.9 77.5 205.0 226.8 788.4
03/05 09:40 28.2 70 19.25 22.2 15 19 1013 0 41.2 39.0 75.1 198.8 219.0 761.3
03/05 09:30 27.7 73 19.53 22.4 15 20 1012.9 0 41.8 39.7 76.9 203.5 224.7 780.8
03/05 09:20 27.2 75 19.52 22.4 13 17 1012.8 0 41.8 39.9 77.4 204.7 226.0 785.4
03/05 09:10 26.7 76 19.24 22.1 17 19 1012.6 0 41.3 39.7 76.5 202.5 223.3 775.7
03/05 09:00 26.4 78 19.42 22.3 15 20 1012.5 0 41.7 40.1 77.7 205.6 226.9 788.3
03/05 08:50 26.4 80 19.92 22.7 17 20 1012.4 0 42.8 41.1 80.0 211.8 234.6 815.0
03/05 08:40 25.5 82 19.41 22.2 19 20 1012.2 0 41.8 40.5 78.6 207.8 229.4 797.0
03/05 08:30 25 84 19.34 22.1 13 19 1012.2 0 41.7 40.6 78.7 208.3 229.9 798.5
03/05 08:20 24.5 86 19.25 22 11 15 1012.1 0 41.6 40.7 78.8 208.5 230.0 798.9
03/05 08:10 23.8 88 18.93 21.7 11 13 1012 0 40.9 40.4 78.0 206.4 227.1 788.8
03/05 08:00 23.5 89 18.82 21.6 9 13 1011.9 0 40.7 40.4 77.8 205.8 226.3 785.9
03/05 07:50 23.1 91 18.81 21.5 9 9 1011.7 0 40.8 40.5 78.1 206.7 227.3 789.4
03/05 07:40 22.6 92 18.48 21.2 9 11 1011.5 0 40.1 40.1 77.0 203.8 223.6 776.4
03/05 07:30 22.1 93 18.15 20.9 7 11 1011.4 0 39.5 39.7 76.0 200.9 219.9 763.4
03/05 07:20 21.7 95 18.12 20.9 9 11 1011.1 0 39.4 39.8 76.2 201.5 220.6 765.6
03/05 07:10 21 96 17.58 20.3 9 9 1011 0 38.3 39.1 74.3 196.4 214.1 743.0
03/05 07:00 20.9 96 17.48 20.2 0 0 1011.1 0 38.1 39.0 73.9 195.4 212.8 738.5
03/05 06:50 21.1 95 17.5 20.3 0 0 1011.1 0 38.2 38.9 73.8 195.1 212.5 737.6
03/05 06:40 21.2 95 17.6 20.4 6 6 1011 0 38.4 39.1 74.2 196.2 213.8 742.1
03/05 06:30 21.2 95 17.6 20.4 7 7 1011.1 0 38.4 39.1 74.2 196.2 213.8 742.1
03/05 06:20 21.3 94 17.52 20.3 6 6 1010.8 0 38.2 38.9 73.7 194.8 212.2 736.6
03/05 06:10 21.4 94 17.62 20.4 7 9 1010.8 0 38.4 39.0 74.1 195.9 213.5 741.1
03/05 06:00 21.4 94 17.62 20.4 9 11 1010.7 0 38.4 39.0 74.1 195.8 213.5 741.0
03/05 05:50 21.5 94 17.72 20.5 9 11 1010.7 0 38.6 39.1 74.4 196.9 214.8 745.5
03/05 05:40 21.5 93 17.54 20.3 7 9 1010.6 0 38.2 38.8 73.6 194.5 212.0 735.7
03/05 05:30 21.5 92 17.35 20.1 7 9 1010.6 0 37.8 38.4 72.7 192.1 209.0 725.3
03/05 05:20 21.6 92 17.45 20.2 7 9 1010.5 0 38.0 38.6 73.0 193.1 210.3 729.7
03/05 05:10 21.7 92 17.55 20.3 7 7 1010.5 0 38.2 38.7 73.4 194.1 211.5 734.2
03/05 05:00 21.8 91 17.46 20.3 7 7 1010.5 0 38.0 38.5 72.9 192.7 209.8 728.3
03/05 04:50 21.9 90 17.37 20.2 7 7 1010.5 0 37.8 38.3 72.4 191.4 208.2 722.5
03/05 04:40 22 90 17.47 20.3 7 9 1010.4 0 38.0 38.4 72.7 192.3 209.4 726.9
03/05 04:30 22 90 17.47 20.3 7 9 1010.3 0 38.0 38.4 72.7 192.3 209.4 726.9
03/05 04:20 22 90 17.47 20.3 7 7 1010.3 0 38.0 38.4 72.7 192.3 209.4 726.9
03/05 04:10 22 90 17.47 20.3 7 9 1010.3 0 38.0 38.4 72.7 192.3 209.4 726.9
03/05 04:00 22 89 17.27 20.1 7 9 1010.3 0 37.6 38.0 71.8 189.8 206.3 716.1
03/05 03:50 22.2 88 17.28 20.1 7 9 1010.3 0 37.6 38.0 71.6 189.4 205.9 714.7
03/05 03:40 22.1 88 17.18 20 7 9 1010.3 0 37.4 37.8 71.3 188.4 204.7 710.4
03/05 03:30 22.2 88 17.28 20.1 7 11 1010.3 0 37.6 38.0 71.6 189.4 205.9 714.7
03/05 03:20 22.3 88 17.38 20.2 9 11 1010.2 0 37.8 38.1 72.0 190.4 207.2 719.1
03/05 03:10 22.2 88 17.28 20.1 9 11 1010.1 0 37.6 38.0 71.6 189.4 205.9 714.6
03/05 03:00 22.2 88 17.28 20.1 9 11 1010.1 0 37.6 38.0 71.6 189.4 205.9 714.6
03/05 02:50 22.3 87 17.18 20 7 9 1010.1 0 37.4 37.7 71.1 187.9 204.1 708.4
03/05 02:40 22.5 86 17.18 20 9 11 1010.3 0 37.3 37.6 70.9 187.4 203.6 706.6
03/05 02:30 22.6 86 17.28 20.1 9 11 1010.4 0 37.6 37.8 71.3 188.5 204.8 711.0
03/05 02:20 22.6 86 17.28 20.1 9 9 1010.5 0 37.6 37.8 71.3 188.5 204.8 711.1
03/05 02:10 22.5 87 17.38 20.2 9 13 1010.6 0 37.8 38.0 71.8 190.0 206.7 717.4
03/05 02:00 22.6 86 17.28 20.1 9 11 1010.7 0 37.5 37.8 71.3 188.5 204.9 711.2
03/05 01:50 22.7 86 17.37 20.2 7 9 1010.6 0 37.7 37.9 71.6 189.4 206.0 715.0
03/05 01:40 22.8 86 17.47 20.3 6 6 1010.7 0 37.9 38.1 72.0 190.4 207.2 719.4
03/05 01:30 22.9 86 17.57 20.4 6 6 1010.7 0 38.1 38.2 72.4 191.4 208.5 723.8
03/05 01:20 23.1 84 17.36 20.2 4 6 1010.9 0 37.7 37.7 71.2 188.3 204.8 710.8
03/05 01:10 23 85 17.47 20.3 4 6 1011 0 37.9 38.0 71.8 189.9 206.7 717.6
03/05 01:00 23 85 17.47 20.3 6 6 1011.1 0 37.9 38.0 71.8 189.9 206.7 717.7
03/05 00:50 23.1 84 17.36 20.2 6 6 1011 0 37.7 37.7 71.2 188.3 204.8 710.9
03/05 00:40 23.2 84 17.46 20.3 6 6 1011.1 0 37.9 37.9 71.6 189.3 206.0 715.3
03/05 00:30 23.4 83 17.45 20.3 6 6 1011.2 0 37.8 37.8 71.4 188.7 205.3 712.9
03/05 00:20 23.4 83 17.45 20.3 6 6 1011.2 0 37.8 37.8 71.4 188.7 205.3 712.9
03/05 00:10 23.5 83 17.55 20.4 6 6 1011.2 0 38.0 37.9 71.7 189.7 206.6 717.2
03/05 00:00 23.8 80 17.21 20.1 6 7 1011.4 0 37.3 37.2 69.9 184.8 200.7 696.7
02/05 23:50 23.8 81 17.42 20.3 6 6 1011.3 0 37.7 37.5 70.9 187.4 203.8 707.6
02/05 23:40 24 80 17.4 20.3 6 6 1011.5 0 37.7 37.4 70.6 186.6 203.0 704.8
02/05 23:30 24.3 78 17.26 20.2 4 6 1011.5 0 37.3 37.0 69.7 184.2 200.1 694.8
02/05 23:20 24.3 77 17.04 20 4 6 1011.5 0 36.9 36.6 68.7 181.5 196.8 683.4
02/05 23:10 24.5 77 17.23 20.2 6 6 1011.5 0 37.3 36.9 69.4 183.4 199.1 691.4
02/05 23:00 24.6 77 17.33 20.3 6 7 1011.5 0 37.5 37.0 69.7 184.3 200.3 695.7
02/05 22:50 24.7 77 17.43 20.4 6 6 1011.3 0 37.7 37.2 70.1 185.3 201.5 699.8
02/05 22:40 24.9 76 17.4 20.4 6 7 1011.2 0 37.6 37.0 69.7 184.4 200.5 696.4
02/05 22:30 25.3 73 17.09 20.1 6 7 1011.4 0 36.9 36.3 68.0 179.8 195.0 677.0
02/05 22:20 25.4 71 16.71 19.8 7 7 1011.2 0 36.1 35.6 66.2 175.0 189.1 656.8
02/05 22:10 25.5 71 16.81 19.9 6 6 1011.3 0 36.3 35.7 66.6 176.0 190.4 661.0
02/05 22:00 25.6 70 16.67 19.9 7 9 1011.4 0 36.0 35.4 65.9 174.1 188.1 653.2
02/05 21:50 25.7 70 16.76 19.8 7 7 1011.2 0 36.2 35.5 66.2 174.9 189.1 656.7
02/05 21:40 25.8 70 16.85 19.9 7 7 1011.2 0 36.3 35.6 66.5 175.8 190.2 660.4
02/05 21:30 25.9 70 16.95 20 7 11 1011.3 0 36.5 35.8 66.8 176.7 191.4 664.6
02/05 21:20 25.8 71 17.09 20.1 7 7 1011 0 36.8 36.1 67.5 178.5 193.6 672.4
02/05 21:10 25.8 71 17.09 20.1 7 7 1010.9 0 36.8 36.1 67.5 178.5 193.6 672.4
02/05 21:00 25.7 72 17.24 20.3 2 9 1010.9 0 37.2 36.4 68.3 180.5 196.0 680.8
02/05 20:50 26.1 70 17.14 20.2 0 0 1010.8 0 36.9 36.0 67.5 178.4 193.5 672.2
02/05 20:40 26.3 70 17.33 20.4 0 0 1010.7 0 37.3 36.3 68.1 180.2 195.8 680.0
02/05 20:30 26.3 70 17.33 20.4 0 0 1010.6 0 37.3 36.3 68.1 180.2 195.8 679.9
02/05 20:20 26.2 70 17.23 20.3 0 0 1010.5 0 37.1 36.1 67.8 179.2 194.5 675.7
02/05 20:10 26.5 68 17.02 20.3 0 0 1010.4 0 36.6 35.6 66.6 176.0 190.7 662.5
02/05 20:00 26.8 67 17.05 20.2 0 0 1010.2 0 36.7 35.5 66.4 175.7 190.4 661.3
02/05 19:50 26.9 66 16.89 20 0 0 1010.1 0 36.3 35.2 65.6 173.6 187.9 652.5

Last Refresh: 03-May-2026 12:28:49

Bureau of Meteorology